sensor_id;sensor_type;location;lat;lon;timestamp;P1;durP1;ratioP1;P2;durP2;ratioP2
37303;SDS011;23188;51.188;16.374;2023-03-08T00:02:56;4.60;;;3.10;;
37303;SDS011;23188;51.188;16.374;2023-03-08T00:06:59;6.40;;;3.70;;
37303;SDS011;23188;51.188;16.374;2023-03-08T00:11:10;10.20;;;6.20;;
37303;SDS011;23188;51.188;16.374;2023-03-08T00:15:30;10.30;;;4.50;;
37303;SDS011;23188;51.188;16.374;2023-03-08T00:24:26;10.20;;;3.50;;
37303;SDS011;23188;51.188;16.374;2023-03-08T00:32:36;6.50;;;4.30;;
37303;SDS011;23188;51.188;16.374;2023-03-08T00:41:47;5.10;;;3.90;;
37303;SDS011;23188;51.188;16.374;2023-03-08T00:50:54;4.80;;;3.20;;
37303;SDS011;23188;51.188;16.374;2023-03-08T00:59:24;4.40;;;3.50;;
37303;SDS011;23188;51.188;16.374;2023-03-08T01:03:29;6.80;;;3.80;;
37303;SDS011;23188;51.188;16.374;2023-03-08T01:07:32;6.10;;;3.50;;
37303;SDS011;23188;51.188;16.374;2023-03-08T01:11:35;6.50;;;3.90;;
37303;SDS011;23188;51.188;16.374;2023-03-08T01:15:39;5.80;;;3.10;;
37303;SDS011;23188;51.188;16.374;2023-03-08T01:19:42;3.50;;;2.70;;
37303;SDS011;23188;51.188;16.374;2023-03-08T01:23:45;8.70;;;2.80;;
37303;SDS011;23188;51.188;16.374;2023-03-08T01:32:50;13.00;;;3.80;;
37303;SDS011;23188;51.188;16.374;2023-03-08T01:41:32;6.00;;;3.30;;
37303;SDS011;23188;51.188;16.374;2023-03-08T01:46:01;5.80;;;2.10;;
37303;SDS011;23188;51.188;16.374;2023-03-08T01:50:17;2.90;;;2.50;;
37303;SDS011;23188;51.188;16.374;2023-03-08T01:54:22;4.60;;;3.40;;
37303;SDS011;23188;51.188;16.374;2023-03-08T01:58:30;8.30;;;6.10;;
37303;SDS011;23188;51.188;16.374;2023-03-08T02:02:39;8.50;;;6.90;;
37303;SDS011;23188;51.188;16.374;2023-03-08T02:06:45;8.50;;;7.70;;
37303;SDS011;23188;51.188;16.374;2023-03-08T02:15:07;5.00;;;2.70;;
37303;SDS011;23188;51.188;16.374;2023-03-08T02:19:33;10.30;;;2.90;;
37303;SDS011;23188;51.188;16.374;2023-03-08T02:23:45;4.30;;;2.60;;
37303;SDS011;23188;51.188;16.374;2023-03-08T02:27:50;4.20;;;2.50;;
37303;SDS011;23188;51.188;16.374;2023-03-08T02:31:55;3.50;;;3.20;;
37303;SDS011;23188;51.188;16.374;2023-03-08T02:36:03;6.40;;;3.30;;
37303;SDS011;23188;51.188;16.374;2023-03-08T02:40:08;4.30;;;3.00;;
37303;SDS011;23188;51.188;16.374;2023-03-08T02:44:19;3.80;;;3.20;;
37303;SDS011;23188;51.188;16.374;2023-03-08T02:48:22;3.80;;;2.50;;
37303;SDS011;23188;51.188;16.374;2023-03-08T02:52:25;5.80;;;2.50;;
37303;SDS011;23188;51.188;16.374;2023-03-08T02:56:28;9.20;;;3.80;;
37303;SDS011;23188;51.188;16.374;2023-03-08T03:00:35;7.30;;;3.00;;
37303;SDS011;23188;51.188;16.374;2023-03-08T03:04:38;3.90;;;3.30;;
37303;SDS011;23188;51.188;16.374;2023-03-08T03:08:46;6.80;;;4.90;;
37303;SDS011;23188;51.188;16.374;2023-03-08T03:18:38;9.70;;;4.90;;
37303;SDS011;23188;51.188;16.374;2023-03-08T03:23:06;4.70;;;3.30;;
37303;SDS011;23188;51.188;16.374;2023-03-08T03:27:10;4.30;;;3.30;;
37303;SDS011;23188;51.188;16.374;2023-03-08T03:31:15;4.40;;;3.60;;
37303;SDS011;23188;51.188;16.374;2023-03-08T03:35:20;3.80;;;2.80;;
37303;SDS011;23188;51.188;16.374;2023-03-08T03:39:23;4.70;;;3.40;;
37303;SDS011;23188;51.188;16.374;2023-03-08T03:43:27;4.20;;;3.00;;
37303;SDS011;23188;51.188;16.374;2023-03-08T03:47:31;8.60;;;4.30;;
37303;SDS011;23188;51.188;16.374;2023-03-08T03:51:35;3.60;;;2.90;;
37303;SDS011;23188;51.188;16.374;2023-03-08T03:55:38;8.00;;;2.40;;
37303;SDS011;23188;51.188;16.374;2023-03-08T03:59:41;4.70;;;2.80;;
37303;SDS011;23188;51.188;16.374;2023-03-08T04:03:45;4.50;;;3.20;;
37303;SDS011;23188;51.188;16.374;2023-03-08T04:07:49;11.60;;;2.70;;
37303;SDS011;23188;51.188;16.374;2023-03-08T04:11:52;4.10;;;2.40;;
37303;SDS011;23188;51.188;16.374;2023-03-08T04:15:55;2.60;;;2.00;;
37303;SDS011;23188;51.188;16.374;2023-03-08T04:19:58;10.60;;;2.40;;
37303;SDS011;23188;51.188;16.374;2023-03-08T04:24:02;3.70;;;1.60;;
37303;SDS011;23188;51.188;16.374;2023-03-08T04:28:06;1.80;;;1.30;;
37303;SDS011;23188;51.188;16.374;2023-03-08T04:32:09;2.20;;;1.50;;
37303;SDS011;23188;51.188;16.374;2023-03-08T04:36:13;3.80;;;1.60;;
37303;SDS011;23188;51.188;16.374;2023-03-08T04:40:17;1.30;;;0.90;;
37303;SDS011;23188;51.188;16.374;2023-03-08T04:44:21;4.20;;;1.60;;
37303;SDS011;23188;51.188;16.374;2023-03-08T04:48:24;3.50;;;1.30;;
37303;SDS011;23188;51.188;16.374;2023-03-08T04:52:28;3.70;;;1.20;;
37303;SDS011;23188;51.188;16.374;2023-03-08T04:56:32;3.40;;;1.30;;
37303;SDS011;23188;51.188;16.374;2023-03-08T05:00:35;2.60;;;1.10;;
37303;SDS011;23188;51.188;16.374;2023-03-08T05:04:38;1.60;;;1.00;;
37303;SDS011;23188;51.188;16.374;2023-03-08T05:08:41;4.30;;;2.20;;
37303;SDS011;23188;51.188;16.374;2023-03-08T05:12:45;4.30;;;2.90;;
37303;SDS011;23188;51.188;16.374;2023-03-08T05:16:48;3.90;;;2.20;;
37303;SDS011;23188;51.188;16.374;2023-03-08T05:20:55;2.90;;;1.90;;
37303;SDS011;23188;51.188;16.374;2023-03-08T05:25:00;3.00;;;2.30;;
37303;SDS011;23188;51.188;16.374;2023-03-08T05:29:03;2.50;;;2.30;;
37303;SDS011;23188;51.188;16.374;2023-03-08T05:33:08;4.10;;;3.00;;
37303;SDS011;23188;51.188;16.374;2023-03-08T05:37:11;3.40;;;2.50;;
37303;SDS011;23188;51.188;16.374;2023-03-08T05:41:15;4.70;;;2.80;;
37303;SDS011;23188;51.188;16.374;2023-03-08T05:45:18;5.20;;;3.00;;
37303;SDS011;23188;51.188;16.374;2023-03-08T05:49:22;3.70;;;1.20;;
37303;SDS011;23188;51.188;16.374;2023-03-08T05:53:25;3.80;;;1.90;;
37303;SDS011;23188;51.188;16.374;2023-03-08T05:57:28;5.20;;;2.50;;
37303;SDS011;23188;51.188;16.374;2023-03-08T06:01:31;4.60;;;3.60;;
37303;SDS011;23188;51.188;16.374;2023-03-08T06:05:34;7.30;;;4.40;;
37303;SDS011;23188;51.188;16.374;2023-03-08T06:09:38;3.70;;;2.60;;
37303;SDS011;23188;51.188;16.374;2023-03-08T06:13:41;6.80;;;2.40;;
37303;SDS011;23188;51.188;16.374;2023-03-08T06:17:44;9.10;;;4.30;;
37303;SDS011;23188;51.188;16.374;2023-03-08T06:21:48;4.00;;;2.60;;
37303;SDS011;23188;51.188;16.374;2023-03-08T06:25:51;3.70;;;2.50;;
37303;SDS011;23188;51.188;16.374;2023-03-08T06:29:54;4.70;;;3.70;;
37303;SDS011;23188;51.188;16.374;2023-03-08T06:33:57;4.20;;;2.70;;
37303;SDS011;23188;51.188;16.374;2023-03-08T06:38:01;6.00;;;4.00;;
37303;SDS011;23188;51.188;16.374;2023-03-08T06:42:06;3.60;;;3.00;;
37303;SDS011;23188;51.188;16.374;2023-03-08T06:46:10;5.00;;;2.80;;
37303;SDS011;23188;51.188;16.374;2023-03-08T06:50:16;3.60;;;2.50;;
37303;SDS011;23188;51.188;16.374;2023-03-08T06:54:19;3.10;;;2.90;;
37303;SDS011;23188;51.188;16.374;2023-03-08T06:58:23;3.90;;;2.40;;
37303;SDS011;23188;51.188;16.374;2023-03-08T07:02:28;6.50;;;3.00;;
37303;SDS011;23188;51.188;16.374;2023-03-08T07:06:32;4.10;;;3.00;;
37303;SDS011;23188;51.188;16.374;2023-03-08T07:10:35;6.80;;;4.80;;
37303;SDS011;23188;51.188;16.374;2023-03-08T07:14:38;12.80;;;8.70;;
37303;SDS011;23188;51.188;16.374;2023-03-08T07:18:41;23.80;;;14.20;;
37303;SDS011;23188;51.188;16.374;2023-03-08T07:22:45;16.30;;;12.30;;
37303;SDS011;23188;51.188;16.374;2023-03-08T07:26:49;15.50;;;9.20;;
37303;SDS011;23188;51.188;16.374;2023-03-08T07:30:52;11.40;;;6.10;;
37303;SDS011;23188;51.188;16.374;2023-03-08T07:34:55;12.70;;;6.20;;
37303;SDS011;23188;51.188;16.374;2023-03-08T07:38:59;10.80;;;6.60;;
37303;SDS011;23188;51.188;16.374;2023-03-08T07:43:02;9.80;;;7.10;;
37303;SDS011;23188;51.188;16.374;2023-03-08T07:47:06;10.40;;;6.70;;
37303;SDS011;23188;51.188;16.374;2023-03-08T07:51:10;15.70;;;5.80;;
37303;SDS011;23188;51.188;16.374;2023-03-08T07:55:14;8.40;;;4.70;;
37303;SDS011;23188;51.188;16.374;2023-03-08T07:59:18;7.70;;;4.00;;
37303;SDS011;23188;51.188;16.374;2023-03-08T08:03:21;4.40;;;4.00;;
37303;SDS011;23188;51.188;16.374;2023-03-08T08:07:25;6.30;;;3.80;;
37303;SDS011;23188;51.188;16.374;2023-03-08T08:11:28;5.60;;;3.50;;
37303;SDS011;23188;51.188;16.374;2023-03-08T08:15:31;5.70;;;4.30;;
37303;SDS011;23188;51.188;16.374;2023-03-08T08:19:35;7.80;;;4.40;;
37303;SDS011;23188;51.188;16.374;2023-03-08T08:23:39;6.60;;;4.40;;
37303;SDS011;23188;51.188;16.374;2023-03-08T08:27:44;5.80;;;2.80;;
37303;SDS011;23188;51.188;16.374;2023-03-08T08:31:47;6.50;;;3.60;;
37303;SDS011;23188;51.188;16.374;2023-03-08T08:35:50;7.40;;;3.20;;
37303;SDS011;23188;51.188;16.374;2023-03-08T08:39:53;5.90;;;3.40;;
37303;SDS011;23188;51.188;16.374;2023-03-08T08:43:57;6.00;;;3.60;;
37303;SDS011;23188;51.188;16.374;2023-03-08T08:48:01;6.80;;;3.10;;
37303;SDS011;23188;51.188;16.374;2023-03-08T08:52:05;7.00;;;4.10;;
37303;SDS011;23188;51.188;16.374;2023-03-08T09:00:28;5.10;;;3.10;;
37303;SDS011;23188;51.188;16.374;2023-03-08T09:04:32;5.50;;;3.40;;
37303;SDS011;23188;51.188;16.374;2023-03-08T09:08:36;3.00;;;2.30;;
37303;SDS011;23188;51.188;16.374;2023-03-08T09:12:39;4.50;;;2.50;;
37303;SDS011;23188;51.188;16.374;2023-03-08T09:16:44;3.70;;;1.90;;
37303;SDS011;23188;51.188;16.374;2023-03-08T09:20:48;2.90;;;1.60;;
37303;SDS011;23188;51.188;16.374;2023-03-08T09:24:51;2.50;;;2.20;;
37303;SDS011;23188;51.188;16.374;2023-03-08T09:28:56;4.00;;;3.10;;
37303;SDS011;23188;51.188;16.374;2023-03-08T09:33:00;5.60;;;3.50;;
37303;SDS011;23188;51.188;16.374;2023-03-08T09:37:03;3.00;;;2.60;;
37303;SDS011;23188;51.188;16.374;2023-03-08T09:49:30;4.00;;;2.70;;
37303;SDS011;23188;51.188;16.374;2023-03-08T09:53:43;5.40;;;3.30;;
37303;SDS011;23188;51.188;16.374;2023-03-08T09:57:51;3.80;;;2.60;;
37303;SDS011;23188;51.188;16.374;2023-03-08T10:02:12;5.60;;;3.20;;
37303;SDS011;23188;51.188;16.374;2023-03-08T10:11:25;5.80;;;3.20;;
37303;SDS011;23188;51.188;16.374;2023-03-08T10:15:30;5.10;;;3.10;;
37303;SDS011;23188;51.188;16.374;2023-03-08T10:19:43;3.20;;;2.80;;
37303;SDS011;23188;51.188;16.374;2023-03-08T10:28:18;5.80;;;2.70;;
37303;SDS011;23188;51.188;16.374;2023-03-08T10:32:24;4.00;;;3.40;;
37303;SDS011;23188;51.188;16.374;2023-03-08T10:36:28;6.10;;;4.60;;
37303;SDS011;23188;51.188;16.374;2023-03-08T10:40:31;12.40;;;5.00;;
37303;SDS011;23188;51.188;16.374;2023-03-08T10:44:40;5.50;;;4.00;;
37303;SDS011;23188;51.188;16.374;2023-03-08T10:49:13;7.20;;;5.20;;
37303;SDS011;23188;51.188;16.374;2023-03-08T10:53:18;10.70;;;6.00;;
37303;SDS011;23188;51.188;16.374;2023-03-08T10:57:22;17.50;;;7.80;;
37303;SDS011;23188;51.188;16.374;2023-03-08T11:01:28;6.90;;;5.60;;
37303;SDS011;23188;51.188;16.374;2023-03-08T11:05:34;7.30;;;5.50;;
37303;SDS011;23188;51.188;16.374;2023-03-08T11:09:37;9.00;;;5.70;;
37303;SDS011;23188;51.188;16.374;2023-03-08T11:13:43;8.60;;;4.80;;
37303;SDS011;23188;51.188;16.374;2023-03-08T11:17:56;13.00;;;8.00;;
37303;SDS011;23188;51.188;16.374;2023-03-08T11:36:03;9.90;;;8.40;;
37303;SDS011;23188;51.188;16.374;2023-03-08T11:40:13;12.80;;;10.20;;
37303;SDS011;23188;51.188;16.374;2023-03-08T11:44:36;17.40;;;13.20;;
37303;SDS011;23188;51.188;16.374;2023-03-08T11:57:34;64.70;;;29.40;;
37303;SDS011;23188;51.188;16.374;2023-03-08T12:01:51;25.40;;;12.50;;
37303;SDS011;23188;51.188;16.374;2023-03-08T12:06:46;21.10;;;9.50;;
37303;SDS011;23188;51.188;16.374;2023-03-08T12:10:50;30.30;;;21.20;;
37303;SDS011;23188;51.188;16.374;2023-03-08T12:15:05;15.80;;;9.60;;
37303;SDS011;23188;51.188;16.374;2023-03-08T12:32:36;7.20;;;6.00;;
37303;SDS011;23188;51.188;16.374;2023-03-08T12:36:41;8.30;;;7.20;;
37303;SDS011;23188;51.188;16.374;2023-03-08T12:44:52;13.90;;;7.40;;
37303;SDS011;23188;51.188;16.374;2023-03-08T12:48:55;27.50;;;17.10;;
37303;SDS011;23188;51.188;16.374;2023-03-08T12:52:58;12.90;;;10.50;;
37303;SDS011;23188;51.188;16.374;2023-03-08T12:57:02;15.20;;;11.40;;
37303;SDS011;23188;51.188;16.374;2023-03-08T13:05:35;11.10;;;7.70;;
37303;SDS011;23188;51.188;16.374;2023-03-08T13:13:56;9.60;;;7.80;;
37303;SDS011;23188;51.188;16.374;2023-03-08T13:22:10;14.80;;;10.40;;
37303;SDS011;23188;51.188;16.374;2023-03-08T13:26:23;18.20;;;11.30;;
37303;SDS011;23188;51.188;16.374;2023-03-08T13:30:55;17.10;;;10.70;;
37303;SDS011;23188;51.188;16.374;2023-03-08T13:35:01;17.20;;;10.40;;
37303;SDS011;23188;51.188;16.374;2023-03-08T13:39:07;14.00;;;10.30;;
37303;SDS011;23188;51.188;16.374;2023-03-08T13:43:21;18.60;;;11.70;;
37303;SDS011;23188;51.188;16.374;2023-03-08T13:47:27;17.40;;;9.80;;
37303;SDS011;23188;51.188;16.374;2023-03-08T13:51:34;63.50;;;32.60;;
37303;SDS011;23188;51.188;16.374;2023-03-08T13:55:39;24.60;;;17.10;;
37303;SDS011;23188;51.188;16.374;2023-03-08T13:59:55;15.10;;;12.20;;
37303;SDS011;23188;51.188;16.374;2023-03-08T14:04:09;17.00;;;11.30;;
37303;SDS011;23188;51.188;16.374;2023-03-08T14:08:18;16.50;;;12.80;;
37303;SDS011;23188;51.188;16.374;2023-03-08T14:12:29;13.30;;;9.90;;
37303;SDS011;23188;51.188;16.374;2023-03-08T14:16:35;14.00;;;10.80;;
37303;SDS011;23188;51.188;16.374;2023-03-08T14:20:41;12.50;;;10.10;;
37303;SDS011;23188;51.188;16.374;2023-03-08T14:24:54;13.20;;;10.20;;
37303;SDS011;23188;51.188;16.374;2023-03-08T14:29:23;16.80;;;12.10;;
37303;SDS011;23188;51.188;16.374;2023-03-08T14:33:36;17.90;;;11.60;;
37303;SDS011;23188;51.188;16.374;2023-03-08T14:37:44;17.60;;;13.20;;
37303;SDS011;23188;51.188;16.374;2023-03-08T14:41:48;21.30;;;12.80;;
37303;SDS011;23188;51.188;16.374;2023-03-08T14:45:54;20.30;;;12.60;;
37303;SDS011;23188;51.188;16.374;2023-03-08T14:54:19;15.50;;;12.90;;
37303;SDS011;23188;51.188;16.374;2023-03-08T14:58:44;15.60;;;11.90;;
37303;SDS011;23188;51.188;16.374;2023-03-08T15:02:50;18.10;;;12.20;;
37303;SDS011;23188;51.188;16.374;2023-03-08T15:06:55;21.70;;;13.50;;
37303;SDS011;23188;51.188;16.374;2023-03-08T15:10:58;26.50;;;14.90;;
37303;SDS011;23188;51.188;16.374;2023-03-08T15:15:07;23.80;;;17.70;;
37303;SDS011;23188;51.188;16.374;2023-03-08T15:19:14;18.70;;;13.10;;
37303;SDS011;23188;51.188;16.374;2023-03-08T15:23:19;21.90;;;14.00;;
37303;SDS011;23188;51.188;16.374;2023-03-08T15:27:25;20.30;;;14.80;;
37303;SDS011;23188;51.188;16.374;2023-03-08T15:31:32;20.20;;;14.20;;
37303;SDS011;23188;51.188;16.374;2023-03-08T15:35:38;21.40;;;17.30;;
37303;SDS011;23188;51.188;16.374;2023-03-08T15:39:42;20.50;;;14.60;;
37303;SDS011;23188;51.188;16.374;2023-03-08T15:43:47;26.60;;;17.00;;
37303;SDS011;23188;51.188;16.374;2023-03-08T15:47:54;22.50;;;16.20;;
37303;SDS011;23188;51.188;16.374;2023-03-08T15:52:01;26.60;;;17.80;;
37303;SDS011;23188;51.188;16.374;2023-03-08T15:56:04;22.10;;;15.30;;
37303;SDS011;23188;51.188;16.374;2023-03-08T16:00:08;19.60;;;16.10;;
37303;SDS011;23188;51.188;16.374;2023-03-08T16:04:15;26.70;;;17.10;;
37303;SDS011;23188;51.188;16.374;2023-03-08T16:08:18;29.80;;;20.00;;
37303;SDS011;23188;51.188;16.374;2023-03-08T16:12:27;30.40;;;18.00;;
37303;SDS011;23188;51.188;16.374;2023-03-08T16:16:31;24.70;;;17.60;;
37303;SDS011;23188;51.188;16.374;2023-03-08T16:20:47;20.00;;;16.70;;
37303;SDS011;23188;51.188;16.374;2023-03-08T16:24:51;25.30;;;16.70;;
37303;SDS011;23188;51.188;16.374;2023-03-08T16:28:55;27.20;;;18.70;;
37303;SDS011;23188;51.188;16.374;2023-03-08T16:32:58;28.50;;;17.10;;
37303;SDS011;23188;51.188;16.374;2023-03-08T16:37:02;32.40;;;18.30;;
37303;SDS011;23188;51.188;16.374;2023-03-08T16:41:07;29.40;;;18.00;;
37303;SDS011;23188;51.188;16.374;2023-03-08T16:45:15;27.50;;;18.20;;
37303;SDS011;23188;51.188;16.374;2023-03-08T16:49:19;25.50;;;17.10;;
37303;SDS011;23188;51.188;16.374;2023-03-08T16:53:25;26.50;;;20.70;;
37303;SDS011;23188;51.188;16.374;2023-03-08T16:57:29;22.80;;;16.90;;
37303;SDS011;23188;51.188;16.374;2023-03-08T17:01:32;25.70;;;17.60;;
37303;SDS011;23188;51.188;16.374;2023-03-08T17:05:37;32.30;;;21.20;;
37303;SDS011;23188;51.188;16.374;2023-03-08T17:09:42;26.70;;;18.40;;
37303;SDS011;23188;51.188;16.374;2023-03-08T17:13:46;20.50;;;16.50;;
37303;SDS011;23188;51.188;16.374;2023-03-08T17:17:53;27.20;;;18.60;;
37303;SDS011;23188;51.188;16.374;2023-03-08T17:21:59;27.30;;;18.20;;
37303;SDS011;23188;51.188;16.374;2023-03-08T17:26:06;28.20;;;19.70;;
37303;SDS011;23188;51.188;16.374;2023-03-08T17:30:11;23.00;;;17.00;;
37303;SDS011;23188;51.188;16.374;2023-03-08T17:34:16;28.30;;;19.00;;
37303;SDS011;23188;51.188;16.374;2023-03-08T17:38:22;32.30;;;18.40;;
37303;SDS011;23188;51.188;16.374;2023-03-08T17:42:25;30.70;;;17.80;;
37303;SDS011;23188;51.188;16.374;2023-03-08T17:46:28;30.90;;;19.30;;
37303;SDS011;23188;51.188;16.374;2023-03-08T17:50:33;35.10;;;22.10;;
37303;SDS011;23188;51.188;16.374;2023-03-08T17:54:37;36.10;;;22.10;;
37303;SDS011;23188;51.188;16.374;2023-03-08T17:58:40;32.60;;;22.40;;
37303;SDS011;23188;51.188;16.374;2023-03-08T18:02:44;33.90;;;21.50;;
37303;SDS011;23188;51.188;16.374;2023-03-08T18:06:48;26.70;;;19.40;;
37303;SDS011;23188;51.188;16.374;2023-03-08T18:10:52;33.80;;;18.70;;
37303;SDS011;23188;51.188;16.374;2023-03-08T18:14:55;22.70;;;18.30;;
37303;SDS011;23188;51.188;16.374;2023-03-08T18:19:00;32.90;;;21.00;;
37303;SDS011;23188;51.188;16.374;2023-03-08T18:23:05;32.70;;;23.60;;
37303;SDS011;23188;51.188;16.374;2023-03-08T18:27:09;29.40;;;19.00;;
37303;SDS011;23188;51.188;16.374;2023-03-08T18:31:20;27.00;;;21.40;;
37303;SDS011;23188;51.188;16.374;2023-03-08T18:35:25;32.50;;;22.60;;
37303;SDS011;23188;51.188;16.374;2023-03-08T18:39:28;30.60;;;19.20;;
37303;SDS011;23188;51.188;16.374;2023-03-08T18:43:31;30.00;;;20.60;;
37303;SDS011;23188;51.188;16.374;2023-03-08T18:47:35;36.00;;;25.70;;
37303;SDS011;23188;51.188;16.374;2023-03-08T18:51:39;35.70;;;21.70;;
37303;SDS011;23188;51.188;16.374;2023-03-08T18:55:57;36.40;;;19.60;;
37303;SDS011;23188;51.188;16.374;2023-03-08T19:00:02;32.30;;;23.00;;
37303;SDS011;23188;51.188;16.374;2023-03-08T19:04:12;44.80;;;25.80;;
37303;SDS011;23188;51.188;16.374;2023-03-08T19:08:17;37.20;;;24.30;;
37303;SDS011;23188;51.188;16.374;2023-03-08T19:12:21;32.60;;;23.50;;
37303;SDS011;23188;51.188;16.374;2023-03-08T19:16:26;34.00;;;22.80;;
37303;SDS011;23188;51.188;16.374;2023-03-08T19:20:34;43.30;;;27.20;;
37303;SDS011;23188;51.188;16.374;2023-03-08T19:24:38;40.90;;;28.50;;
37303;SDS011;23188;51.188;16.374;2023-03-08T19:28:41;31.70;;;21.30;;
37303;SDS011;23188;51.188;16.374;2023-03-08T19:32:44;32.10;;;19.80;;
37303;SDS011;23188;51.188;16.374;2023-03-08T19:36:50;27.80;;;21.40;;
37303;SDS011;23188;51.188;16.374;2023-03-08T19:40:53;27.80;;;21.20;;
37303;SDS011;23188;51.188;16.374;2023-03-08T19:44:57;27.90;;;21.60;;
37303;SDS011;23188;51.188;16.374;2023-03-08T19:49:00;32.80;;;22.20;;
37303;SDS011;23188;51.188;16.374;2023-03-08T19:53:04;33.40;;;22.40;;
37303;SDS011;23188;51.188;16.374;2023-03-08T19:57:08;35.60;;;22.80;;
37303;SDS011;23188;51.188;16.374;2023-03-08T20:01:14;31.70;;;21.40;;
37303;SDS011;23188;51.188;16.374;2023-03-08T20:05:20;32.10;;;23.10;;
37303;SDS011;23188;51.188;16.374;2023-03-08T20:09:24;34.50;;;21.10;;
37303;SDS011;23188;51.188;16.374;2023-03-08T20:13:27;29.30;;;21.70;;
37303;SDS011;23188;51.188;16.374;2023-03-08T20:17:31;37.50;;;25.30;;
37303;SDS011;23188;51.188;16.374;2023-03-08T20:21:35;33.90;;;23.60;;
37303;SDS011;23188;51.188;16.374;2023-03-08T20:25:41;46.40;;;26.00;;
37303;SDS011;23188;51.188;16.374;2023-03-08T20:29:45;48.30;;;30.00;;
37303;SDS011;23188;51.188;16.374;2023-03-08T20:33:48;49.40;;;31.50;;
37303;SDS011;23188;51.188;16.374;2023-03-08T20:41:58;49.70;;;32.80;;
37303;SDS011;23188;51.188;16.374;2023-03-08T20:46:02;49.70;;;31.00;;
37303;SDS011;23188;51.188;16.374;2023-03-08T20:50:11;53.80;;;37.40;;
37303;SDS011;23188;51.188;16.374;2023-03-08T20:54:14;57.00;;;39.30;;
37303;SDS011;23188;51.188;16.374;2023-03-08T20:58:17;45.70;;;31.70;;
37303;SDS011;23188;51.188;16.374;2023-03-08T21:02:20;53.80;;;36.30;;
37303;SDS011;23188;51.188;16.374;2023-03-08T21:06:25;48.30;;;36.10;;
37303;SDS011;23188;51.188;16.374;2023-03-08T21:10:30;60.00;;;37.40;;
37303;SDS011;23188;51.188;16.374;2023-03-08T21:14:38;49.30;;;36.90;;
37303;SDS011;23188;51.188;16.374;2023-03-08T21:18:47;47.40;;;34.90;;
37303;SDS011;23188;51.188;16.374;2023-03-08T21:22:51;56.60;;;37.30;;
37303;SDS011;23188;51.188;16.374;2023-03-08T21:26:55;46.10;;;33.00;;
37303;SDS011;23188;51.188;16.374;2023-03-08T21:30:58;55.80;;;36.00;;
37303;SDS011;23188;51.188;16.374;2023-03-08T21:35:02;52.60;;;37.50;;
37303;SDS011;23188;51.188;16.374;2023-03-08T21:39:06;55.80;;;34.50;;
37303;SDS011;23188;51.188;16.374;2023-03-08T21:43:10;69.20;;;44.30;;
37303;SDS011;23188;51.188;16.374;2023-03-08T21:47:13;53.90;;;40.00;;
37303;SDS011;23188;51.188;16.374;2023-03-08T21:51:17;55.20;;;33.30;;
37303;SDS011;23188;51.188;16.374;2023-03-08T21:55:21;50.50;;;37.00;;
37303;SDS011;23188;51.188;16.374;2023-03-08T21:59:25;50.80;;;37.30;;
37303;SDS011;23188;51.188;16.374;2023-03-08T22:03:30;57.10;;;37.50;;
37303;SDS011;23188;51.188;16.374;2023-03-08T22:07:35;54.50;;;37.40;;
37303;SDS011;23188;51.188;16.374;2023-03-08T22:11:38;65.50;;;38.90;;
37303;SDS011;23188;51.188;16.374;2023-03-08T22:15:42;50.70;;;36.20;;
37303;SDS011;23188;51.188;16.374;2023-03-08T22:19:46;48.70;;;34.40;;
37303;SDS011;23188;51.188;16.374;2023-03-08T22:23:50;46.70;;;35.40;;
37303;SDS011;23188;51.188;16.374;2023-03-08T22:27:55;52.40;;;39.10;;
37303;SDS011;23188;51.188;16.374;2023-03-08T22:31:58;63.90;;;41.80;;
37303;SDS011;23188;51.188;16.374;2023-03-08T22:36:06;71.70;;;48.80;;
37303;SDS011;23188;51.188;16.374;2023-03-08T22:40:11;57.00;;;36.60;;
37303;SDS011;23188;51.188;16.374;2023-03-08T22:44:15;51.20;;;36.00;;
37303;SDS011;23188;51.188;16.374;2023-03-08T22:48:18;54.10;;;39.40;;
37303;SDS011;23188;51.188;16.374;2023-03-08T22:52:22;65.30;;;38.70;;
37303;SDS011;23188;51.188;16.374;2023-03-08T22:56:26;66.30;;;40.20;;
37303;SDS011;23188;51.188;16.374;2023-03-08T23:00:35;60.90;;;42.80;;
37303;SDS011;23188;51.188;16.374;2023-03-08T23:04:38;54.30;;;38.20;;
37303;SDS011;23188;51.188;16.374;2023-03-08T23:08:42;59.60;;;40.50;;
37303;SDS011;23188;51.188;16.374;2023-03-08T23:12:45;60.70;;;36.80;;
37303;SDS011;23188;51.188;16.374;2023-03-08T23:16:49;49.50;;;36.40;;
37303;SDS011;23188;51.188;16.374;2023-03-08T23:20:52;65.10;;;36.30;;
37303;SDS011;23188;51.188;16.374;2023-03-08T23:25:08;61.40;;;40.20;;
37303;SDS011;23188;51.188;16.374;2023-03-08T23:29:27;53.00;;;40.50;;
37303;SDS011;23188;51.188;16.374;2023-03-08T23:33:30;61.40;;;40.20;;
37303;SDS011;23188;51.188;16.374;2023-03-08T23:37:33;74.90;;;44.50;;
37303;SDS011;23188;51.188;16.374;2023-03-08T23:41:38;54.20;;;35.60;;
37303;SDS011;23188;51.188;16.374;2023-03-08T23:45:42;67.90;;;44.20;;
37303;SDS011;23188;51.188;16.374;2023-03-08T23:49:47;79.70;;;47.20;;
37303;SDS011;23188;51.188;16.374;2023-03-08T23:53:51;62.80;;;41.70;;
37303;SDS011;23188;51.188;16.374;2023-03-08T23:57:55;63.00;;;43.20;;
